Waldenburg, Arkansas
Current Conditions -  °F | °C
As of 6:56 PM on Friday 28 Nov 2014 (Local Time) from KM19 Reporting Station
Clear Clear  
Wind Chill: 39°   Ceiling: Unl
Heat Index: 45°   Visibility: 10mi
Dew Point: 37°   Wind: 12mph
Humidity: 73%   Direction: 170°S
Pressure: 30.08"   Gusts: NA
Location:  35.57°N, 90.93°W
Report Text: KM19 290056Z AUTO 17010KT 10SM CLR 07/03 A3008 RMK AO2 T00720027 SLP187
Loading
Personal Weather Stations






























Interactive Weather Map New forecast layout! Learn more

10-Day Weather Forecast

Advertisements
Track Severe Weather on mobile